sensor_id;sensor_type;location;lat;lon;timestamp;P1;durP1;ratioP1;P2;durP2;ratioP2
69534;SDS011;56754;51.568;5.048;2022-12-18T00:00:59;31.42;;;13.50;;
69534;SDS011;56754;51.568;5.048;2022-12-18T00:03:25;35.42;;;14.45;;
69534;SDS011;56754;51.568;5.048;2022-12-18T00:05:51;37.37;;;14.80;;
69534;SDS011;56754;51.568;5.048;2022-12-18T00:08:18;38.67;;;15.13;;
69534;SDS011;56754;51.568;5.048;2022-12-18T00:10:44;35.25;;;14.20;;
69534;SDS011;56754;51.568;5.048;2022-12-18T00:13:12;33.47;;;13.40;;
69534;SDS011;56754;51.568;5.048;2022-12-18T00:15:38;36.53;;;14.55;;
69534;SDS011;56754;51.568;5.048;2022-12-18T00:18:04;37.67;;;14.63;;
69534;SDS011;56754;51.568;5.048;2022-12-18T00:20:30;32.13;;;13.45;;
69534;SDS011;56754;51.568;5.048;2022-12-18T00:22:56;33.22;;;13.60;;
69534;SDS011;56754;51.568;5.048;2022-12-18T00:25:21;35.17;;;14.50;;
69534;SDS011;56754;51.568;5.048;2022-12-18T00:27:46;32.03;;;13.27;;
69534;SDS011;56754;51.568;5.048;2022-12-18T00:30:13;38.65;;;14.13;;
69534;SDS011;56754;51.568;5.048;2022-12-18T00:32:38;32.93;;;13.57;;
69534;SDS011;56754;51.568;5.048;2022-12-18T00:35:04;32.13;;;13.20;;
69534;SDS011;56754;51.568;5.048;2022-12-18T00:37:30;31.70;;;13.33;;
69534;SDS011;56754;51.568;5.048;2022-12-18T00:39:56;34.67;;;13.75;;
69534;SDS011;56754;51.568;5.048;2022-12-18T00:42:21;30.60;;;12.63;;
69534;SDS011;56754;51.568;5.048;2022-12-18T00:44:46;32.13;;;13.27;;
69534;SDS011;56754;51.568;5.048;2022-12-18T00:47:12;34.10;;;13.43;;
69534;SDS011;56754;51.568;5.048;2022-12-18T00:49:37;31.40;;;12.97;;
69534;SDS011;56754;51.568;5.048;2022-12-18T00:52:02;31.70;;;13.10;;
69534;SDS011;56754;51.568;5.048;2022-12-18T00:54:27;32.17;;;13.17;;
69534;SDS011;56754;51.568;5.048;2022-12-18T00:56:53;29.37;;;13.13;;
69534;SDS011;56754;51.568;5.048;2022-12-18T00:59:18;34.70;;;14.07;;
69534;SDS011;56754;51.568;5.048;2022-12-18T01:01:43;33.28;;;13.48;;
69534;SDS011;56754;51.568;5.048;2022-12-18T01:04:09;33.20;;;13.63;;
69534;SDS011;56754;51.568;5.048;2022-12-18T01:06:34;31.30;;;12.33;;
69534;SDS011;56754;51.568;5.048;2022-12-18T01:08:59;32.27;;;12.97;;
69534;SDS011;56754;51.568;5.048;2022-12-18T01:11:25;31.37;;;13.80;;
69534;SDS011;56754;51.568;5.048;2022-12-18T01:13:51;31.67;;;13.20;;
69534;SDS011;56754;51.568;5.048;2022-12-18T01:16:17;35.08;;;13.43;;
69534;SDS011;56754;51.568;5.048;2022-12-18T01:18:43;31.30;;;13.17;;
69534;SDS011;56754;51.568;5.048;2022-12-18T01:21:09;31.20;;;13.30;;
69534;SDS011;56754;51.568;5.048;2022-12-18T01:23:36;29.10;;;12.03;;
69534;SDS011;56754;51.568;5.048;2022-12-18T01:26:09;29.15;;;12.13;;
69534;SDS011;56754;51.568;5.048;2022-12-18T01:28:39;29.80;;;12.57;;
69534;SDS011;56754;51.568;5.048;2022-12-18T01:33:39;30.15;;;11.95;;
69534;SDS011;56754;51.568;5.048;2022-12-18T01:36:05;28.25;;;11.73;;
69534;SDS011;56754;51.568;5.048;2022-12-18T01:38:30;29.13;;;12.33;;
69534;SDS011;56754;51.568;5.048;2022-12-18T01:40:59;28.87;;;12.50;;
69534;SDS011;56754;51.568;5.048;2022-12-18T01:46:21;28.35;;;11.52;;
69534;SDS011;56754;51.568;5.048;2022-12-18T01:48:48;27.70;;;12.05;;
69534;SDS011;56754;51.568;5.048;2022-12-18T01:51:16;28.98;;;12.80;;
69534;SDS011;56754;51.568;5.048;2022-12-18T01:53:42;27.90;;;11.40;;
69534;SDS011;56754;51.568;5.048;2022-12-18T01:56:11;25.65;;;11.30;;
69534;SDS011;56754;51.568;5.048;2022-12-18T01:58:45;26.90;;;11.85;;
69534;SDS011;56754;51.568;5.048;2022-12-18T02:01:15;26.27;;;11.15;;
69534;SDS011;56754;51.568;5.048;2022-12-18T02:03:41;22.83;;;11.03;;
69534;SDS011;56754;51.568;5.048;2022-12-18T02:06:19;26.65;;;12.00;;
69534;SDS011;56754;51.568;5.048;2022-12-18T02:17:18;24.60;;;11.33;;
69534;SDS011;56754;51.568;5.048;2022-12-18T02:22:36;24.90;;;10.82;;
69534;SDS011;56754;51.568;5.048;2022-12-18T02:27:59;24.05;;;10.52;;
69534;SDS011;56754;51.568;5.048;2022-12-18T02:30:27;22.80;;;10.43;;
69534;SDS011;56754;51.568;5.048;2022-12-18T02:32:56;23.83;;;10.05;;
69534;SDS011;56754;51.568;5.048;2022-12-18T02:35:24;22.58;;;10.23;;
69534;SDS011;56754;51.568;5.048;2022-12-18T02:37:53;24.15;;;10.63;;
69534;SDS011;56754;51.568;5.048;2022-12-18T02:40:20;26.55;;;11.35;;
69534;SDS011;56754;51.568;5.048;2022-12-18T02:42:48;22.57;;;10.37;;
69534;SDS011;56754;51.568;5.048;2022-12-18T02:45:13;25.07;;;11.57;;
69534;SDS011;56754;51.568;5.048;2022-12-18T02:47:39;24.30;;;10.48;;
69534;SDS011;56754;51.568;5.048;2022-12-18T02:50:16;24.37;;;10.03;;
69534;SDS011;56754;51.568;5.048;2022-12-18T03:01:01;21.75;;;9.82;;
69534;SDS011;56754;51.568;5.048;2022-12-18T03:06:18;22.80;;;10.10;;
69534;SDS011;56754;51.568;5.048;2022-12-18T03:08:49;21.55;;;9.57;;
69534;SDS011;56754;51.568;5.048;2022-12-18T03:11:19;23.33;;;9.88;;
69534;SDS011;56754;51.568;5.048;2022-12-18T03:13:46;18.40;;;8.47;;
69534;SDS011;56754;51.568;5.048;2022-12-18T03:16:18;21.47;;;9.57;;
69534;SDS011;56754;51.568;5.048;2022-12-18T03:18:51;19.08;;;9.43;;
69534;SDS011;56754;51.568;5.048;2022-12-18T03:21:21;18.17;;;8.55;;
69534;SDS011;56754;51.568;5.048;2022-12-18T03:23:52;17.67;;;8.68;;
69534;SDS011;56754;51.568;5.048;2022-12-18T03:26:20;22.85;;;9.77;;
69534;SDS011;56754;51.568;5.048;2022-12-18T03:28:50;18.67;;;9.03;;
69534;SDS011;56754;51.568;5.048;2022-12-18T03:31:18;17.17;;;8.25;;
69534;SDS011;56754;51.568;5.048;2022-12-18T03:33:50;19.02;;;9.10;;
69534;SDS011;56754;51.568;5.048;2022-12-18T03:36:18;18.05;;;8.73;;
69534;SDS011;56754;51.568;5.048;2022-12-18T03:38:43;19.13;;;9.23;;
69534;SDS011;56754;51.568;5.048;2022-12-18T03:41:16;19.53;;;9.07;;
69534;SDS011;56754;51.568;5.048;2022-12-18T03:44:27;20.52;;;8.68;;
69534;SDS011;56754;51.568;5.048;2022-12-18T03:46:53;19.35;;;8.88;;
69534;SDS011;56754;51.568;5.048;2022-12-18T03:52:01;19.50;;;8.70;;
69534;SDS011;56754;51.568;5.048;2022-12-18T03:54:30;19.23;;;8.38;;
69534;SDS011;56754;51.568;5.048;2022-12-18T03:57:05;17.83;;;8.30;;
69534;SDS011;56754;51.568;5.048;2022-12-18T03:59:34;18.50;;;9.05;;
69534;SDS011;56754;51.568;5.048;2022-12-18T04:02:02;18.75;;;8.77;;
69534;SDS011;56754;51.568;5.048;2022-12-18T04:04:31;19.10;;;8.50;;
69534;SDS011;56754;51.568;5.048;2022-12-18T04:06:59;17.65;;;8.38;;
69534;SDS011;56754;51.568;5.048;2022-12-18T04:09:26;17.35;;;8.48;;
69534;SDS011;56754;51.568;5.048;2022-12-18T04:11:53;16.73;;;8.20;;
69534;SDS011;56754;51.568;5.048;2022-12-18T04:14:18;18.83;;;8.70;;
69534;SDS011;56754;51.568;5.048;2022-12-18T04:16:43;16.33;;;7.70;;
69534;SDS011;56754;51.568;5.048;2022-12-18T04:19:09;18.47;;;8.40;;
69534;SDS011;56754;51.568;5.048;2022-12-18T04:21:34;17.73;;;7.97;;
69534;SDS011;56754;51.568;5.048;2022-12-18T04:23:59;18.27;;;8.43;;
69534;SDS011;56754;51.568;5.048;2022-12-18T04:26:25;17.63;;;8.27;;
69534;SDS011;56754;51.568;5.048;2022-12-18T04:28:50;16.17;;;7.97;;
69534;SDS011;56754;51.568;5.048;2022-12-18T04:31:15;17.50;;;8.00;;
69534;SDS011;56754;51.568;5.048;2022-12-18T04:33:40;18.13;;;8.67;;
69534;SDS011;56754;51.568;5.048;2022-12-18T04:36:06;17.47;;;8.33;;
69534;SDS011;56754;51.568;5.048;2022-12-18T04:38:32;19.63;;;7.93;;
69534;SDS011;56754;51.568;5.048;2022-12-18T04:40:57;16.13;;;8.00;;
69534;SDS011;56754;51.568;5.048;2022-12-18T04:43:22;19.80;;;8.10;;
69534;SDS011;56754;51.568;5.048;2022-12-18T04:45:48;16.73;;;8.07;;
69534;SDS011;56754;51.568;5.048;2022-12-18T04:48:13;14.83;;;7.40;;
69534;SDS011;56754;51.568;5.048;2022-12-18T04:50:38;16.75;;;7.88;;
69534;SDS011;56754;51.568;5.048;2022-12-18T04:53:04;17.03;;;8.03;;
69534;SDS011;56754;51.568;5.048;2022-12-18T04:55:29;17.27;;;8.40;;
69534;SDS011;56754;51.568;5.048;2022-12-18T04:57:54;17.70;;;7.87;;
69534;SDS011;56754;51.568;5.048;2022-12-18T05:00:20;18.50;;;8.27;;
69534;SDS011;56754;51.568;5.048;2022-12-18T05:02:46;19.23;;;8.38;;
69534;SDS011;56754;51.568;5.048;2022-12-18T05:05:11;15.50;;;7.77;;
69534;SDS011;56754;51.568;5.048;2022-12-18T05:07:36;14.93;;;7.23;;
69534;SDS011;56754;51.568;5.048;2022-12-18T05:10:02;17.15;;;7.60;;
69534;SDS011;56754;51.568;5.048;2022-12-18T05:12:29;14.47;;;6.70;;
69534;SDS011;56754;51.568;5.048;2022-12-18T05:14:55;16.73;;;7.60;;
69534;SDS011;56754;51.568;5.048;2022-12-18T05:17:21;16.37;;;7.53;;
69534;SDS011;56754;51.568;5.048;2022-12-18T05:19:46;16.70;;;7.43;;
69534;SDS011;56754;51.568;5.048;2022-12-18T05:22:11;15.98;;;7.18;;
69534;SDS011;56754;51.568;5.048;2022-12-18T05:24:37;16.87;;;8.07;;
69534;SDS011;56754;51.568;5.048;2022-12-18T05:27:02;15.27;;;7.33;;
69534;SDS011;56754;51.568;5.048;2022-12-18T05:29:27;16.27;;;7.30;;
69534;SDS011;56754;51.568;5.048;2022-12-18T05:31:53;16.40;;;7.53;;
69534;SDS011;56754;51.568;5.048;2022-12-18T05:34:18;15.87;;;7.63;;
69534;SDS011;56754;51.568;5.048;2022-12-18T05:36:43;13.83;;;6.80;;
69534;SDS011;56754;51.568;5.048;2022-12-18T05:39:09;14.55;;;7.03;;
69534;SDS011;56754;51.568;5.048;2022-12-18T05:41:34;15.90;;;7.03;;
69534;SDS011;56754;51.568;5.048;2022-12-18T05:43:59;16.10;;;7.63;;
69534;SDS011;56754;51.568;5.048;2022-12-18T05:46:25;15.37;;;7.27;;
69534;SDS011;56754;51.568;5.048;2022-12-18T05:48:50;13.20;;;6.78;;
69534;SDS011;56754;51.568;5.048;2022-12-18T05:51:17;13.47;;;6.40;;
69534;SDS011;56754;51.568;5.048;2022-12-18T05:53:44;15.40;;;7.38;;
69534;SDS011;56754;51.568;5.048;2022-12-18T05:56:11;15.47;;;7.13;;
69534;SDS011;56754;51.568;5.048;2022-12-18T05:58:38;14.10;;;6.47;;
69534;SDS011;56754;51.568;5.048;2022-12-18T06:01:08;14.10;;;7.20;;
69534;SDS011;56754;51.568;5.048;2022-12-18T06:03:35;14.57;;;6.77;;
69534;SDS011;56754;51.568;5.048;2022-12-18T06:06:01;16.52;;;7.50;;
69534;SDS011;56754;51.568;5.048;2022-12-18T06:08:26;14.70;;;7.03;;
69534;SDS011;56754;51.568;5.048;2022-12-18T06:10:54;14.67;;;7.07;;
69534;SDS011;56754;51.568;5.048;2022-12-18T06:13:19;13.75;;;7.40;;
69534;SDS011;56754;51.568;5.048;2022-12-18T06:15:45;15.70;;;7.40;;
69534;SDS011;56754;51.568;5.048;2022-12-18T06:18:10;15.27;;;7.00;;
69534;SDS011;56754;51.568;5.048;2022-12-18T06:20:36;15.80;;;7.20;;
69534;SDS011;56754;51.568;5.048;2022-12-18T06:23:01;12.43;;;6.20;;
69534;SDS011;56754;51.568;5.048;2022-12-18T06:25:26;13.73;;;6.63;;
69534;SDS011;56754;51.568;5.048;2022-12-18T06:27:51;16.43;;;7.20;;
69534;SDS011;56754;51.568;5.048;2022-12-18T06:30:17;14.83;;;7.00;;
69534;SDS011;56754;51.568;5.048;2022-12-18T06:32:42;15.50;;;7.07;;
69534;SDS011;56754;51.568;5.048;2022-12-18T06:35:07;12.77;;;6.63;;
69534;SDS011;56754;51.568;5.048;2022-12-18T06:37:33;14.32;;;7.13;;
69534;SDS011;56754;51.568;5.048;2022-12-18T06:39:58;14.80;;;7.00;;
69534;SDS011;56754;51.568;5.048;2022-12-18T06:42:24;13.30;;;6.97;;
69534;SDS011;56754;51.568;5.048;2022-12-18T06:44:49;15.23;;;7.07;;
69534;SDS011;56754;51.568;5.048;2022-12-18T06:47:14;14.67;;;6.70;;
69534;SDS011;56754;51.568;5.048;2022-12-18T06:49:40;14.17;;;6.80;;
69534;SDS011;56754;51.568;5.048;2022-12-18T06:52:05;15.20;;;7.17;;
69534;SDS011;56754;51.568;5.048;2022-12-18T06:54:30;15.90;;;7.43;;
69534;SDS011;56754;51.568;5.048;2022-12-18T06:56:56;16.10;;;6.73;;
69534;SDS011;56754;51.568;5.048;2022-12-18T06:59:21;14.60;;;6.87;;
69534;SDS011;56754;51.568;5.048;2022-12-18T07:01:46;16.27;;;7.57;;
69534;SDS011;56754;51.568;5.048;2022-12-18T07:04:11;15.47;;;6.50;;
69534;SDS011;56754;51.568;5.048;2022-12-18T07:06:37;16.07;;;6.70;;
69534;SDS011;56754;51.568;5.048;2022-12-18T07:09:02;14.33;;;6.77;;
69534;SDS011;56754;51.568;5.048;2022-12-18T07:11:27;16.87;;;6.60;;
69534;SDS011;56754;51.568;5.048;2022-12-18T07:13:53;13.97;;;7.00;;
69534;SDS011;56754;51.568;5.048;2022-12-18T07:16:18;14.43;;;7.40;;
69534;SDS011;56754;51.568;5.048;2022-12-18T07:18:45;16.70;;;7.65;;
69534;SDS011;56754;51.568;5.048;2022-12-18T07:21:12;13.47;;;6.57;;
69534;SDS011;56754;51.568;5.048;2022-12-18T07:23:42;19.10;;;7.03;;
69534;SDS011;56754;51.568;5.048;2022-12-18T07:26:09;12.23;;;6.50;;
69534;SDS011;56754;51.568;5.048;2022-12-18T07:28:36;14.68;;;6.90;;
69534;SDS011;56754;51.568;5.048;2022-12-18T07:31:03;15.00;;;6.55;;
69534;SDS011;56754;51.568;5.048;2022-12-18T07:33:29;12.80;;;6.85;;
69534;SDS011;56754;51.568;5.048;2022-12-18T07:35:55;14.27;;;6.50;;
69534;SDS011;56754;51.568;5.048;2022-12-18T07:38:21;17.57;;;6.93;;
69534;SDS011;56754;51.568;5.048;2022-12-18T07:40:46;15.27;;;6.68;;
69534;SDS011;56754;51.568;5.048;2022-12-18T07:43:12;15.40;;;7.13;;
69534;SDS011;56754;51.568;5.048;2022-12-18T07:45:37;14.80;;;7.40;;
69534;SDS011;56754;51.568;5.048;2022-12-18T07:48:02;14.73;;;6.50;;
69534;SDS011;56754;51.568;5.048;2022-12-18T07:50:28;14.00;;;6.50;;
69534;SDS011;56754;51.568;5.048;2022-12-18T07:52:53;14.90;;;7.07;;
69534;SDS011;56754;51.568;5.048;2022-12-18T07:55:18;12.90;;;6.47;;
69534;SDS011;56754;51.568;5.048;2022-12-18T07:57:43;13.10;;;6.85;;
69534;SDS011;56754;51.568;5.048;2022-12-18T08:00:09;13.67;;;6.40;;
69534;SDS011;56754;51.568;5.048;2022-12-18T08:02:35;14.00;;;6.60;;
69534;SDS011;56754;51.568;5.048;2022-12-18T08:05:00;14.80;;;6.68;;
69534;SDS011;56754;51.568;5.048;2022-12-18T08:07:25;16.63;;;6.80;;
69534;SDS011;56754;51.568;5.048;2022-12-18T08:09:50;14.23;;;7.23;;
69534;SDS011;56754;51.568;5.048;2022-12-18T08:12:16;13.23;;;6.33;;
69534;SDS011;56754;51.568;5.048;2022-12-18T08:14:41;14.07;;;6.90;;
69534;SDS011;56754;51.568;5.048;2022-12-18T08:17:06;13.30;;;6.43;;
69534;SDS011;56754;51.568;5.048;2022-12-18T08:19:32;13.10;;;6.30;;
69534;SDS011;56754;51.568;5.048;2022-12-18T08:21:57;12.70;;;6.65;;
69534;SDS011;56754;51.568;5.048;2022-12-18T08:24:22;14.50;;;6.57;;
69534;SDS011;56754;51.568;5.048;2022-12-18T08:26:48;14.73;;;7.10;;
69534;SDS011;56754;51.568;5.048;2022-12-18T08:29:13;16.13;;;6.87;;
69534;SDS011;56754;51.568;5.048;2022-12-18T08:31:38;13.83;;;6.67;;
69534;SDS011;56754;51.568;5.048;2022-12-18T08:34:04;15.13;;;6.43;;
69534;SDS011;56754;51.568;5.048;2022-12-18T08:36:29;21.13;;;6.90;;
69534;SDS011;56754;51.568;5.048;2022-12-18T08:38:54;14.73;;;6.47;;
69534;SDS011;56754;51.568;5.048;2022-12-18T08:41:20;13.93;;;6.10;;
69534;SDS011;56754;51.568;5.048;2022-12-18T08:43:45;15.73;;;7.18;;
69534;SDS011;56754;51.568;5.048;2022-12-18T08:46:11;12.93;;;6.30;;
69534;SDS011;56754;51.568;5.048;2022-12-18T08:48:37;14.63;;;7.53;;
69534;SDS011;56754;51.568;5.048;2022-12-18T08:51:02;12.20;;;6.27;;
69534;SDS011;56754;51.568;5.048;2022-12-18T08:53:28;13.10;;;6.47;;
69534;SDS011;56754;51.568;5.048;2022-12-18T08:55:54;16.60;;;7.50;;
69534;SDS011;56754;51.568;5.048;2022-12-18T08:58:21;17.95;;;7.82;;
69534;SDS011;56754;51.568;5.048;2022-12-18T09:00:47;14.63;;;6.83;;
69534;SDS011;56754;51.568;5.048;2022-12-18T09:03:13;13.83;;;6.60;;
69534;SDS011;56754;51.568;5.048;2022-12-18T09:05:43;13.40;;;6.65;;
69534;SDS011;56754;51.568;5.048;2022-12-18T09:08:10;14.82;;;7.03;;
69534;SDS011;56754;51.568;5.048;2022-12-18T09:10:40;16.47;;;7.90;;
69534;SDS011;56754;51.568;5.048;2022-12-18T09:13:10;14.23;;;7.22;;
69534;SDS011;56754;51.568;5.048;2022-12-18T09:15:43;15.35;;;7.72;;
69534;SDS011;56754;51.568;5.048;2022-12-18T09:18:13;14.47;;;6.97;;
69534;SDS011;56754;51.568;5.048;2022-12-18T09:20:39;13.95;;;6.97;;
69534;SDS011;56754;51.568;5.048;2022-12-18T09:23:05;14.07;;;6.65;;
69534;SDS011;56754;51.568;5.048;2022-12-18T09:25:31;14.50;;;7.00;;
69534;SDS011;56754;51.568;5.048;2022-12-18T09:27:57;13.27;;;6.82;;
69534;SDS011;56754;51.568;5.048;2022-12-18T09:30:22;13.67;;;6.27;;
69534;SDS011;56754;51.568;5.048;2022-12-18T09:32:47;11.43;;;6.13;;
69534;SDS011;56754;51.568;5.048;2022-12-18T09:35:13;13.10;;;6.47;;
69534;SDS011;56754;51.568;5.048;2022-12-18T09:37:38;13.30;;;6.50;;
69534;SDS011;56754;51.568;5.048;2022-12-18T09:40:03;14.73;;;6.47;;
69534;SDS011;56754;51.568;5.048;2022-12-18T09:42:29;15.20;;;7.07;;
69534;SDS011;56754;51.568;5.048;2022-12-18T09:44:55;15.35;;;7.30;;
69534;SDS011;56754;51.568;5.048;2022-12-18T09:50:02;14.43;;;6.30;;
69534;SDS011;56754;51.568;5.048;2022-12-18T09:52:51;13.10;;;6.55;;
69534;SDS011;56754;51.568;5.048;2022-12-18T09:58:04;14.27;;;7.05;;
69534;SDS011;56754;51.568;5.048;2022-12-18T10:00:35;12.43;;;6.10;;
69534;SDS011;56754;51.568;5.048;2022-12-18T10:03:01;12.32;;;6.50;;
69534;SDS011;56754;51.568;5.048;2022-12-18T10:05:37;11.10;;;5.80;;
69534;SDS011;56754;51.568;5.048;2022-12-18T10:23:09;13.68;;;6.57;;
69534;SDS011;56754;51.568;5.048;2022-12-18T10:28:19;12.25;;;5.90;;
69534;SDS011;56754;51.568;5.048;2022-12-18T10:30:45;14.65;;;6.57;;
69534;SDS011;56754;51.568;5.048;2022-12-18T10:33:15;13.23;;;6.03;;
69534;SDS011;56754;51.568;5.048;2022-12-18T10:35:42;14.80;;;7.32;;
69534;SDS011;56754;51.568;5.048;2022-12-18T10:40:56;12.82;;;5.70;;
69534;SDS011;56754;51.568;5.048;2022-12-18T10:51:15;12.73;;;6.57;;
69534;SDS011;56754;51.568;5.048;2022-12-18T10:53:55;14.38;;;7.13;;
69534;SDS011;56754;51.568;5.048;2022-12-18T10:56:26;12.73;;;6.43;;
69534;SDS011;56754;51.568;5.048;2022-12-18T10:59:03;13.40;;;6.53;;
69534;SDS011;56754;51.568;5.048;2022-12-18T11:04:13;13.48;;;6.88;;
69534;SDS011;56754;51.568;5.048;2022-12-18T11:07:02;12.75;;;6.78;;
69534;SDS011;56754;51.568;5.048;2022-12-18T11:09:34;13.77;;;6.13;;
69534;SDS011;56754;51.568;5.048;2022-12-18T11:12:15;15.48;;;7.47;;
69534;SDS011;56754;51.568;5.048;2022-12-18T11:14:43;13.27;;;6.55;;
69534;SDS011;56754;51.568;5.048;2022-12-18T11:19:43;12.93;;;6.60;;
69534;SDS011;56754;51.568;5.048;2022-12-18T11:22:23;14.53;;;7.00;;
69534;SDS011;56754;51.568;5.048;2022-12-18T11:24:57;13.77;;;6.68;;
69534;SDS011;56754;51.568;5.048;2022-12-18T11:27:22;14.83;;;7.17;;
69534;SDS011;56754;51.568;5.048;2022-12-18T11:29:49;15.15;;;6.80;;
69534;SDS011;56754;51.568;5.048;2022-12-18T11:38:02;14.98;;;7.20;;
69534;SDS011;56754;51.568;5.048;2022-12-18T11:40:36;13.18;;;6.40;;
69534;SDS011;56754;51.568;5.048;2022-12-18T11:45:51;13.60;;;6.18;;
69534;SDS011;56754;51.568;5.048;2022-12-18T11:50:53;14.75;;;7.25;;
69534;SDS011;56754;51.568;5.048;2022-12-18T11:53:21;14.18;;;7.22;;
69534;SDS011;56754;51.568;5.048;2022-12-18T11:55:49;13.30;;;6.72;;
69534;SDS011;56754;51.568;5.048;2022-12-18T12:03:45;14.10;;;7.57;;
69534;SDS011;56754;51.568;5.048;2022-12-18T12:06:44;15.27;;;7.28;;
69534;SDS011;56754;51.568;5.048;2022-12-18T12:09:15;15.32;;;6.57;;
69534;SDS011;56754;51.568;5.048;2022-12-18T12:16:55;13.67;;;6.93;;
69534;SDS011;56754;51.568;5.048;2022-12-18T12:22:11;14.80;;;6.72;;
69534;SDS011;56754;51.568;5.048;2022-12-18T12:30:18;13.07;;;6.27;;
69534;SDS011;56754;51.568;5.048;2022-12-18T12:38:19;16.45;;;7.35;;
69534;SDS011;56754;51.568;5.048;2022-12-18T12:40:53;15.00;;;8.05;;
69534;SDS011;56754;51.568;5.048;2022-12-18T12:46:07;13.85;;;6.53;;
69534;SDS011;56754;51.568;5.048;2022-12-18T12:51:32;15.63;;;7.30;;
69534;SDS011;56754;51.568;5.048;2022-12-18T12:54:02;13.63;;;6.68;;
69534;SDS011;56754;51.568;5.048;2022-12-18T12:56:39;13.37;;;7.40;;
69534;SDS011;56754;51.568;5.048;2022-12-18T12:59:13;14.35;;;7.00;;
69534;SDS011;56754;51.568;5.048;2022-12-18T13:02:10;13.57;;;7.07;;
69534;SDS011;56754;51.568;5.048;2022-12-18T13:07:29;15.90;;;7.38;;
69534;SDS011;56754;51.568;5.048;2022-12-18T13:10:14;15.50;;;7.13;;
69534;SDS011;56754;51.568;5.048;2022-12-18T13:12:53;13.55;;;6.70;;
69534;SDS011;56754;51.568;5.048;2022-12-18T13:15:29;15.13;;;6.78;;
69534;SDS011;56754;51.568;5.048;2022-12-18T13:25:50;17.27;;;8.27;;
69534;SDS011;56754;51.568;5.048;2022-12-18T13:31:11;14.68;;;6.97;;
69534;SDS011;56754;51.568;5.048;2022-12-18T13:33:44;14.55;;;7.28;;
69534;SDS011;56754;51.568;5.048;2022-12-18T13:41:36;14.98;;;7.18;;
69534;SDS011;56754;51.568;5.048;2022-12-18T13:46:59;17.30;;;8.27;;
69534;SDS011;56754;51.568;5.048;2022-12-18T13:49:37;15.73;;;7.50;;
69534;SDS011;56754;51.568;5.048;2022-12-18T13:52:27;13.43;;;7.55;;
69534;SDS011;56754;51.568;5.048;2022-12-18T13:54:58;14.90;;;6.53;;
69534;SDS011;56754;51.568;5.048;2022-12-18T13:59:58;14.77;;;7.70;;
69534;SDS011;56754;51.568;5.048;2022-12-18T14:02:37;16.48;;;7.43;;
69534;SDS011;56754;51.568;5.048;2022-12-18T14:05:02;14.13;;;7.57;;
69534;SDS011;56754;51.568;5.048;2022-12-18T14:07:28;15.07;;;7.30;;
69534;SDS011;56754;51.568;5.048;2022-12-18T14:09:55;12.95;;;6.90;;
69534;SDS011;56754;51.568;5.048;2022-12-18T14:14:50;14.70;;;7.18;;
69534;SDS011;56754;51.568;5.048;2022-12-18T14:17:16;14.82;;;7.55;;
69534;SDS011;56754;51.568;5.048;2022-12-18T14:19:46;13.37;;;6.83;;
69534;SDS011;56754;51.568;5.048;2022-12-18T14:22:15;16.52;;;7.93;;
69534;SDS011;56754;51.568;5.048;2022-12-18T14:24:42;13.43;;;7.03;;
69534;SDS011;56754;51.568;5.048;2022-12-18T14:27:21;14.00;;;7.50;;
69534;SDS011;56754;51.568;5.048;2022-12-18T14:29:48;13.80;;;7.20;;
69534;SDS011;56754;51.568;5.048;2022-12-18T14:32:15;15.27;;;7.20;;
69534;SDS011;56754;51.568;5.048;2022-12-18T14:34:43;14.52;;;7.28;;
69534;SDS011;56754;51.568;5.048;2022-12-18T14:37:10;14.73;;;8.13;;
69534;SDS011;56754;51.568;5.048;2022-12-18T14:39:36;15.25;;;7.38;;
69534;SDS011;56754;51.568;5.048;2022-12-18T14:42:01;14.83;;;7.70;;
69534;SDS011;56754;51.568;5.048;2022-12-18T14:44:27;13.10;;;6.80;;
69534;SDS011;56754;51.568;5.048;2022-12-18T14:46:52;15.03;;;7.20;;
69534;SDS011;56754;51.568;5.048;2022-12-18T14:51:49;14.10;;;7.20;;
69534;SDS011;56754;51.568;5.048;2022-12-18T14:54:18;14.80;;;7.70;;
69534;SDS011;56754;51.568;5.048;2022-12-18T14:57:04;14.02;;;6.90;;
69534;SDS011;56754;51.568;5.048;2022-12-18T14:59:49;15.80;;;7.38;;
69534;SDS011;56754;51.568;5.048;2022-12-18T15:02:25;14.90;;;7.37;;
69534;SDS011;56754;51.568;5.048;2022-12-18T15:07:47;15.40;;;7.15;;
69534;SDS011;56754;51.568;5.048;2022-12-18T15:12:45;13.05;;;6.63;;
69534;SDS011;56754;51.568;5.048;2022-12-18T15:18:03;15.20;;;7.50;;
69534;SDS011;56754;51.568;5.048;2022-12-18T15:20:48;13.63;;;6.45;;
69534;SDS011;56754;51.568;5.048;2022-12-18T15:23:14;15.30;;;7.43;;
69534;SDS011;56754;51.568;5.048;2022-12-18T15:26:01;14.27;;;6.82;;
69534;SDS011;56754;51.568;5.048;2022-12-18T15:33:34;12.73;;;7.10;;
69534;SDS011;56754;51.568;5.048;2022-12-18T15:36:08;16.10;;;7.57;;
69534;SDS011;56754;51.568;5.048;2022-12-18T15:38:35;14.40;;;7.43;;
69534;SDS011;56754;51.568;5.048;2022-12-18T15:41:00;15.00;;;7.17;;
69534;SDS011;56754;51.568;5.048;2022-12-18T15:43:26;15.98;;;7.78;;
69534;SDS011;56754;51.568;5.048;2022-12-18T15:45:51;14.37;;;7.43;;
69534;SDS011;56754;51.568;5.048;2022-12-18T15:48:21;14.33;;;7.57;;
69534;SDS011;56754;51.568;5.048;2022-12-18T15:50:47;13.07;;;7.22;;
69534;SDS011;56754;51.568;5.048;2022-12-18T15:53:13;13.63;;;7.20;;
69534;SDS011;56754;51.568;5.048;2022-12-18T15:55:39;14.20;;;7.10;;
69534;SDS011;56754;51.568;5.048;2022-12-18T15:58:04;14.83;;;7.50;;
69534;SDS011;56754;51.568;5.048;2022-12-18T16:00:31;13.10;;;6.78;;
69534;SDS011;56754;51.568;5.048;2022-12-18T16:02:58;13.80;;;7.63;;
69534;SDS011;56754;51.568;5.048;2022-12-18T16:05:24;15.43;;;7.70;;
69534;SDS011;56754;51.568;5.048;2022-12-18T16:07:51;14.10;;;7.80;;
69534;SDS011;56754;51.568;5.048;2022-12-18T16:10:16;16.03;;;6.93;;
69534;SDS011;56754;51.568;5.048;2022-12-18T16:12:42;14.70;;;7.70;;
69534;SDS011;56754;51.568;5.048;2022-12-18T16:15:11;15.23;;;7.77;;
69534;SDS011;56754;51.568;5.048;2022-12-18T16:17:37;15.52;;;7.68;;
69534;SDS011;56754;51.568;5.048;2022-12-18T16:20:03;14.10;;;7.33;;
69534;SDS011;56754;51.568;5.048;2022-12-18T16:22:30;16.08;;;8.02;;
69534;SDS011;56754;51.568;5.048;2022-12-18T16:24:56;15.63;;;7.95;;
69534;SDS011;56754;51.568;5.048;2022-12-18T16:27:22;15.23;;;7.83;;
69534;SDS011;56754;51.568;5.048;2022-12-18T16:29:48;14.90;;;7.25;;
69534;SDS011;56754;51.568;5.048;2022-12-18T16:32:15;13.52;;;6.93;;
69534;SDS011;56754;51.568;5.048;2022-12-18T16:34:44;14.65;;;7.97;;
69534;SDS011;56754;51.568;5.048;2022-12-18T16:37:10;12.93;;;7.67;;
69534;SDS011;56754;51.568;5.048;2022-12-18T16:39:37;13.65;;;7.45;;
69534;SDS011;56754;51.568;5.048;2022-12-18T16:42:09;15.73;;;8.07;;
69534;SDS011;56754;51.568;5.048;2022-12-18T16:44:37;14.50;;;7.93;;
69534;SDS011;56754;51.568;5.048;2022-12-18T16:47:02;13.27;;;7.00;;
69534;SDS011;56754;51.568;5.048;2022-12-18T16:49:28;15.37;;;8.20;;
69534;SDS011;56754;51.568;5.048;2022-12-18T16:51:53;16.87;;;8.50;;
69534;SDS011;56754;51.568;5.048;2022-12-18T16:54:19;15.47;;;8.13;;
69534;SDS011;56754;51.568;5.048;2022-12-18T16:56:44;15.60;;;8.40;;
69534;SDS011;56754;51.568;5.048;2022-12-18T16:59:10;12.97;;;6.90;;
69534;SDS011;56754;51.568;5.048;2022-12-18T17:01:36;14.90;;;7.22;;
69534;SDS011;56754;51.568;5.048;2022-12-18T17:04:02;14.47;;;7.30;;
69534;SDS011;56754;51.568;5.048;2022-12-18T17:06:29;16.05;;;7.90;;
69534;SDS011;56754;51.568;5.048;2022-12-18T17:08:57;14.13;;;7.60;;
69534;SDS011;56754;51.568;5.048;2022-12-18T17:11:24;15.05;;;7.50;;
69534;SDS011;56754;51.568;5.048;2022-12-18T17:13:51;14.07;;;7.60;;